createdAt,value
2022-12-03T06:29:43.420Z,98825.56
2022-12-03T06:32:10.450Z,98834.03
2022-12-03T06:34:37.049Z,98834.53
2022-12-03T06:37:03.704Z,98827.22
2022-12-03T06:39:30.278Z,98839.34
2022-12-03T06:41:56.755Z,98843.38
2022-12-03T06:44:23.330Z,98776.78
2022-12-03T06:46:50.211Z,98843.59
2022-12-03T06:49:16.825Z,98858.41
2022-12-03T06:51:43.310Z,98843.97
2022-12-03T06:54:10.747Z,98864.16
2022-12-03T06:56:43.575Z,98855.50
2022-12-03T06:59:12.183Z,98855.69
2022-12-03T07:01:38.745Z,98859.47
2022-12-03T07:04:05.815Z,98867.44
2022-12-03T07:06:32.325Z,98849.09
2022-12-03T07:08:58.811Z,98858.72
2022-12-03T07:11:31.358Z,98875.06
2022-12-03T07:14:05.009Z,98865.09
2022-12-03T07:16:32.447Z,98860.94
2022-12-03T07:18:59.041Z,98851.16
2022-12-03T07:21:25.556Z,98863.47
2022-12-03T07:23:52.036Z,98868.22
2022-12-03T07:26:18.535Z,98862.44
2022-12-03T07:28:45.091Z,98855.69
2022-12-03T07:31:11.651Z,98862.06
2022-12-03T07:33:38.221Z,98859.56
2022-12-03T07:36:04.849Z,98877.19
2022-12-03T07:38:31.346Z,98865.13
2022-12-03T07:40:57.856Z,98866.63
2022-12-03T07:43:24.346Z,98859.94
2022-12-03T07:45:51.205Z,98862.50
2022-12-03T07:48:17.718Z,98861.31
2022-12-03T07:50:44.348Z,98860.75
2022-12-03T07:53:10.841Z,98865.19
2022-12-03T07:55:37.400Z,98860.06
2022-12-03T07:58:04.031Z,98861.03
2022-12-03T08:00:30.510Z,98859.81
2022-12-03T08:02:57.017Z,98864.09
2022-12-03T08:05:23.493Z,98855.97
2022-12-03T08:07:50.287Z,98856.28
2022-12-03T08:10:17.007Z,98851.28
2022-12-03T08:12:43.603Z,98855.13
2022-12-03T08:15:16.288Z,98852.78
2022-12-03T08:17:44.054Z,98847.88
2022-12-03T08:20:20.011Z,98849.09
2022-12-03T08:22:49.173Z,98855.81
2022-12-03T08:25:27.849Z,98851.84
2022-12-03T08:28:00.050Z,98847.31
2022-12-03T08:30:26.611Z,98848.91
2022-12-03T08:32:53.556Z,98832.44
2022-12-03T08:35:26.708Z,98841.56
2022-12-03T08:38:09.324Z,98842.44
2022-12-03T08:40:39.732Z,98826.34
2022-12-03T08:43:18.610Z,98836.53
2022-12-03T08:45:45.631Z,98831.63
2022-12-03T08:48:26.538Z,98841.69
2022-12-03T08:50:55.730Z,98834.28
2022-12-03T08:53:27.864Z,98828.38
2022-12-03T08:55:57.246Z,98831.69
2022-12-03T08:58:43.413Z,98837.13
2022-12-03T09:01:13.013Z,98836.59
2022-12-03T09:03:47.215Z,98833.63
2022-12-03T09:06:13.841Z,98835.47
2022-12-03T09:08:40.328Z,98834.69
2022-12-03T09:11:06.852Z,98840.59
2022-12-03T09:13:33.431Z,98849.94
2022-12-03T09:15:59.916Z,98845.00
2022-12-03T09:18:26.415Z,98832.00
2022-12-03T09:20:52.987Z,98845.19
2022-12-03T09:23:19.543Z,98847.75
2022-12-03T09:25:46.043Z,98844.00
2022-12-03T09:28:12.580Z,98830.09
2022-12-03T09:30:39.143Z,98859.25
2022-12-03T09:33:05.667Z,98845.63
2022-12-03T09:35:32.640Z,98849.69
2022-12-03T09:37:59.163Z,98860.50
2022-12-03T09:40:25.743Z,98840.00
2022-12-03T09:42:52.457Z,98850.97
2022-12-03T09:45:19.095Z,98842.78
2022-12-03T09:47:48.876Z,98835.88
2022-12-03T09:50:26.703Z,98843.16
2022-12-03T09:52:55.104Z,98848.56
2022-12-03T09:55:24.786Z,98843.41
2022-12-03T09:57:52.947Z,98844.06
2022-12-03T10:00:37.304Z,98845.41
2022-12-03T10:03:07.330Z,98847.72
2022-12-03T10:05:34.494Z,98848.91
2022-12-03T10:08:06.649Z,98845.06
2022-12-03T10:10:34.555Z,98835.75
2022-12-03T10:13:01.541Z,98841.69
2022-12-03T10:15:28.162Z,98840.75
2022-12-03T10:17:55.011Z,98826.97
2022-12-03T10:20:24.685Z,98830.63
2022-12-03T10:22:51.484Z,98795.88
2022-12-03T10:25:22.808Z,98810.78
2022-12-03T10:28:00.709Z,98805.44
2022-12-03T10:30:28.576Z,98794.19
2022-12-03T10:32:58.216Z,98793.09
2022-12-03T10:35:36.868Z,98790.78
2022-12-03T10:38:18.369Z,98798.03
2022-12-03T10:40:45.777Z,98787.84
2022-12-03T10:43:23.459Z,98793.00
2022-12-03T10:46:09.536Z,98792.56
2022-12-03T10:48:36.135Z,98780.94
2022-12-03T10:51:06.969Z,98776.16
2022-12-03T10:53:37.312Z,98788.84
2022-12-03T10:56:06.813Z,98794.16
2022-12-03T10:58:38.990Z,98793.16
2022-12-03T11:01:21.509Z,98786.75
2022-12-03T11:03:49.065Z,98773.41
2022-12-03T11:06:21.271Z,98785.63
2022-12-03T11:08:56.765Z,98762.00
2022-12-03T11:11:29.784Z,98782.22
2022-12-03T11:14:01.592Z,98778.50
2022-12-03T11:16:40.347Z,98776.63
2022-12-03T11:19:13.167Z,98779.56
2022-12-03T11:22:10.222Z,98773.78
2022-12-03T11:24:39.054Z,98762.59
2022-12-03T11:27:09.543Z,98775.50
2022-12-03T11:30:02.419Z,98769.31
2022-12-03T11:32:37.759Z,98762.97
2022-12-03T11:35:11.640Z,98753.94
2022-12-03T11:37:38.516Z,98747.91
2022-12-03T11:40:17.006Z,98748.22
2022-12-03T11:42:45.494Z,98748.06
2022-12-03T11:45:18.743Z,98744.66
2022-12-03T11:48:00.221Z,98746.97
2022-12-03T11:50:38.949Z,98736.53
2022-12-03T11:53:24.149Z,98736.72
2022-12-03T11:56:10.656Z,98729.22
2022-12-03T11:58:39.961Z,98735.09
2022-12-03T12:01:08.059Z,98730.22
2022-12-03T12:03:41.538Z,98732.13
2022-12-03T12:06:13.840Z,98719.78
2022-12-03T12:08:54.373Z,98722.72
2022-12-03T12:11:28.313Z,98729.22
2022-12-03T12:13:58.918Z,98724.28
2022-12-03T12:16:39.028Z,98717.78
2022-12-03T12:19:54.356Z,98725.59
2022-12-03T12:22:25.058Z,98728.50
2022-12-03T12:24:54.222Z,98722.56
2022-12-03T12:27:47.387Z,98721.09
2022-12-03T12:30:22.361Z,98712.47
2022-12-03T12:32:51.906Z,98712.53
2022-12-03T12:35:26.398Z,98715.88
2022-12-03T12:38:02.820Z,98716.34
2022-12-03T12:40:32.156Z,98706.50
2022-12-03T12:43:04.295Z,98712.44
2022-12-03T12:45:41.074Z,98712.97
2022-12-03T12:48:24.411Z,98703.41
2022-12-03T12:51:06.181Z,98710.22
2022-12-03T12:53:35.506Z,98708.91
2022-12-03T12:56:21.968Z,98713.72
2022-12-03T12:58:48.708Z,98706.50
2022-12-03T13:01:21.275Z,98710.16
2022-12-03T13:03:51.839Z,98702.75
2022-12-03T13:06:24.198Z,98697.47
2022-12-03T13:08:51.252Z,98688.69
2022-12-03T13:11:34.492Z,98683.56
2022-12-03T13:14:17.685Z,98670.38
2022-12-03T13:16:45.087Z,98665.44
2022-12-03T13:19:43.148Z,98683.31
2022-12-03T13:22:18.364Z,98675.75
2022-12-03T13:24:44.809Z,98677.22
2022-12-03T13:27:17.389Z,98680.63
2022-12-03T13:30:02.736Z,98680.03
2022-12-03T13:32:35.813Z,98676.63
2022-12-03T13:35:07.127Z,98678.88
2022-12-03T13:37:33.711Z,98677.94
2022-12-03T13:40:19.170Z,98656.78
2022-12-03T13:42:46.510Z,98658.50
2022-12-03T13:45:16.052Z,98675.63
2022-12-03T13:47:48.227Z,98673.66
2022-12-03T13:50:37.285Z,98666.03
2022-12-03T13:53:22.119Z,98673.78
2022-12-03T13:55:51.763Z,98665.56
2022-12-03T13:58:18.229Z,98673.25
2022-12-03T14:00:45.210Z,98662.03
2022-12-03T14:03:11.816Z,98679.84
2022-12-03T14:05:38.429Z,98676.03
2022-12-03T14:08:05.955Z,98666.72
2022-12-03T14:10:32.574Z,98662.41
2022-12-03T14:12:59.078Z,98661.41
2022-12-03T14:15:26.351Z,98659.56
2022-12-03T14:17:53.135Z,98655.84
2022-12-03T14:20:20.183Z,98666.16
2022-12-03T14:22:46.694Z,98647.78
2022-12-03T14:25:14.973Z,98642.47
2022-12-03T14:27:41.555Z,98654.72
2022-12-03T14:30:08.845Z,98664.03
2022-12-03T14:32:35.410Z,98658.03
2022-12-03T14:35:05.291Z,98658.38
2022-12-03T14:37:36.123Z,98667.78
2022-12-03T14:40:03.776Z,98672.66
2022-12-03T14:42:30.250Z,98668.03
2022-12-03T14:44:56.743Z,98663.56
2022-12-03T14:47:23.276Z,98658.72
2022-12-03T14:49:50.758Z,98661.69
2022-12-03T14:52:18.559Z,98672.03
2022-12-03T14:54:45.521Z,98667.72
2022-12-03T14:57:13.640Z,98665.72
2022-12-03T14:59:41.511Z,98669.34
2022-12-03T15:02:08.880Z,98667.69
2022-12-03T15:04:36.600Z,98660.38
2022-12-03T15:07:03.577Z,98624.44
2022-12-03T15:09:30.103Z,98661.84
2022-12-03T15:11:56.654Z,98663.16
2022-12-03T15:14:23.287Z,98663.50
2022-12-03T15:16:49.783Z,98661.34
2022-12-03T15:19:16.443Z,98660.56
2022-12-03T15:21:42.947Z,98662.66
2022-12-03T15:24:10.423Z,98641.00
2022-12-03T15:26:37.415Z,98640.94
2022-12-03T15:29:03.969Z,98638.97
2022-12-03T15:31:31.416Z,98650.13
2022-12-03T15:33:57.947Z,98651.69
2022-12-03T15:36:24.478Z,98627.59
2022-12-03T15:38:51.017Z,98645.63
2022-12-03T15:41:36.348Z,98646.00
2022-12-03T15:44:02.882Z,98655.50
2022-12-03T15:46:31.228Z,98638.44
2022-12-03T15:48:58.214Z,98665.50
2022-12-03T15:51:25.110Z,98640.75
2022-12-03T15:53:51.784Z,98666.31
2022-12-03T15:56:18.288Z,98656.16
2022-12-03T15:58:44.754Z,98648.38
2022-12-03T16:01:13.449Z,98666.22
2022-12-03T16:03:40.328Z,98656.34
2022-12-03T16:06:07.100Z,98648.34
2022-12-03T16:08:33.556Z,98657.13
2022-12-03T16:11:00.093Z,98664.53
2022-12-03T16:13:26.604Z,98659.09
2022-12-03T16:15:53.188Z,98667.19
2022-12-03T16:18:19.726Z,98670.13
2022-12-03T16:20:46.360Z,98678.69
2022-12-03T16:23:12.833Z,98675.72
2022-12-03T16:25:39.474Z,98669.75
2022-12-03T16:28:06.093Z,98667.06
2022-12-03T16:30:32.620Z,98665.50
2022-12-03T16:32:59.316Z,98672.72
2022-12-03T16:35:25.935Z,98668.41
2022-12-03T16:37:52.468Z,98665.78
2022-12-03T16:40:19.114Z,98678.13
2022-12-03T16:42:45.632Z,98664.34
2022-12-03T16:45:23.029Z,98675.97
2022-12-03T16:47:50.130Z,98673.13
2022-12-03T16:50:24.449Z,98670.88
2022-12-03T16:52:55.610Z,98675.41
2022-12-03T16:55:22.195Z,98682.94
2022-12-03T16:57:48.734Z,98660.06
2022-12-03T17:00:15.863Z,98656.59
2022-12-03T17:02:42.426Z,98660.78
2022-12-03T17:05:08.937Z,98665.84
2022-12-03T17:07:35.458Z,98663.59
2022-12-03T17:10:02.040Z,98664.22
2022-12-03T17:12:42.256Z,98671.59
2022-12-03T17:15:14.770Z,98660.69
2022-12-03T17:17:41.327Z,98654.44
2022-12-03T17:20:08.629Z,98658.69
2022-12-03T17:22:35.339Z,98655.75
2022-12-03T17:25:01.911Z,98648.09
2022-12-03T17:27:29.472Z,98648.34
2022-12-03T17:29:56.203Z,98646.00
2022-12-03T17:32:22.782Z,98646.25
2022-12-03T17:34:49.341Z,98644.13
2022-12-03T17:37:15.822Z,98647.22
2022-12-03T17:39:42.326Z,98641.47
2022-12-03T17:42:08.871Z,98641.22
2022-12-03T17:44:35.382Z,98638.31
2022-12-03T17:47:01.987Z,98634.41
2022-12-03T17:49:31.655Z,98635.75
2022-12-03T17:51:58.653Z,98614.28
2022-12-03T17:54:37.911Z,98632.44
2022-12-03T17:57:11.906Z,98630.63
2022-12-03T17:59:38.441Z,98605.09
2022-12-03T18:02:05.070Z,98601.94
2022-12-03T18:04:51.677Z,98611.31
2022-12-03T18:07:38.532Z,98627.34
2022-12-03T18:10:25.517Z,98624.25
2022-12-03T18:13:12.838Z,98615.94
2022-12-03T18:15:59.672Z,98632.56
2022-12-03T18:18:48.619Z,98643.41
2022-12-03T18:21:37.014Z,98638.38
2022-12-03T18:24:24.998Z,98615.88
2022-12-03T18:27:11.813Z,98633.81
2022-12-03T18:29:58.755Z,98633.59
2022-12-03T18:32:45.938Z,98639.56
2022-12-03T18:35:32.906Z,98635.34
2022-12-03T18:38:20.967Z,98635.34
2022-12-03T18:41:07.934Z,98627.69
2022-12-03T18:43:55.274Z,98631.31
2022-12-03T18:46:53.390Z,98625.09
2022-12-03T18:49:41.242Z,98570.19
2022-12-03T18:52:28.091Z,98616.53
2022-12-03T18:55:19.014Z,98589.25
2022-12-03T18:58:05.923Z,98607.78
2022-12-03T19:00:52.754Z,98621.09
2022-12-03T19:03:39.645Z,98616.50
2022-12-03T19:06:28.095Z,98621.81
2022-12-03T19:09:14.933Z,98623.38
2022-12-03T19:12:01.883Z,98620.09
2022-12-03T19:14:48.737Z,98609.97
2022-12-03T19:17:35.689Z,98612.97
2022-12-03T19:20:22.537Z,98608.94
2022-12-03T19:23:09.822Z,98588.19
2022-12-03T19:25:58.402Z,98600.25
2022-12-03T19:28:45.225Z,98610.16
2022-12-03T19:31:33.595Z,98604.31
2022-12-03T19:34:20.574Z,98595.75
2022-12-03T19:37:07.397Z,98601.66
2022-12-03T19:39:54.639Z,98595.94
2022-12-03T19:42:42.086Z,98585.72
2022-12-03T19:45:28.909Z,98588.22
2022-12-03T19:48:15.823Z,98579.16
2022-12-03T19:51:26.594Z,98567.75
2022-12-03T19:54:11.050Z,98582.94
2022-12-03T19:56:57.887Z,98561.28
2022-12-03T19:59:45.797Z,98565.69
2022-12-03T20:02:32.651Z,98582.31
2022-12-03T20:05:19.549Z,98570.38
2022-12-03T20:08:07.210Z,98576.47
2022-12-03T20:10:54.018Z,98570.03
2022-12-03T20:13:41.912Z,98563.88
2022-12-03T20:16:29.636Z,98582.50
2022-12-03T20:19:17.726Z,98556.44
2022-12-03T20:22:04.585Z,98579.81
2022-12-03T20:24:51.397Z,98587.34
2022-12-03T20:27:38.222Z,98589.19
2022-12-03T20:30:25.081Z,98589.13
2022-12-03T20:33:12.108Z,98586.22
2022-12-03T20:35:58.897Z,98586.00
2022-12-03T20:38:45.743Z,98577.78
2022-12-03T20:41:35.187Z,98582.44
2022-12-03T20:44:21.969Z,98579.94
2022-12-03T20:47:08.830Z,98559.84
2022-12-03T20:49:55.979Z,98571.28
2022-12-03T20:53:03.362Z,98573.81
2022-12-03T20:55:57.165Z,98569.72
2022-12-03T20:58:44.078Z,98567.66
2022-12-03T21:01:48.857Z,98403.56
2022-12-03T21:04:35.971Z,98560.94
2022-12-03T21:07:22.813Z,98559.78
2022-12-03T21:10:29.812Z,98566.34
2022-12-03T21:13:18.396Z,98567.44
